This is the latest recevied weather packets stored in our database for station/object VA7SCH-13. If no packets are shown the sender has not sent any weather packets the latest 10 day(s).
| Time | Temp. | Humidity | Pressure | Rain* | Wind** | Luminosity | Snow |
|---|---|---|---|---|---|---|---|
| 1777919741 | 25° C | 31% | 1015.8 hPa | 0 mm | - | - | - |
| 1777913721 | 20.56° C | 43% | 1015.7 hPa | 0 mm | - | - | - |
| 1777913120 | 21.11° C | 42% | 1015.8 hPa | 0 mm | - | - | - |
| 1777910121 | 20.56° C | 39% | 1015.8 hPa | 0 mm | - | - | - |
| 1777908941 | 19.44° C | 40% | 1015.7 hPa | 0 mm | - | - | - |
| 1777908320 | 19.44° C | 43% | 1015.9 hPa | 0 mm | - | - | - |
| 1777906521 | 17.22° C | 42% | 1015.9 hPa | 0 mm | - | - | - |
| 1777905321 | 14.44° C | 48% | 1015.5 hPa | 0 mm | - | - | - |
| 1777899321 | 12.78° C | 51% | 1015.8 hPa | 0 mm | - | - | - |
| 1777895119 | 15.56° C | 42% | 1015 hPa | 0 mm | - | - | - |
| 1777893919 | 15° C | 43% | 1015 hPa | 0 mm | - | - | - |
| 1777891519 | 14.44° C | 45% | 1014.8 hPa | 0 mm | - | - | - |
| 1777883139 | 13.89° C | 46% | 1014.5 hPa | 0 mm | - | - | - |
| 1777881919 | 13.89° C | 46% | 1014.5 hPa | 0 mm | - | - | - |
| 1777872938 | 17.78° C | 37% | 1014 hPa | 0 mm | - | - | - |
| 1777872337 | 18.89° C | 35% | 1014.1 hPa | 0 mm | - | - | - |
| 1777867536 | 19.44° C | 35% | 1013.5 hPa | 0 mm | - | - | - |
| 1777860935 | 23.33° C | 35% | 1012 hPa | 0 mm | - | - | - |
| 1777859735 | 24.44° C | 33% | 1013.2 hPa | 0 mm | - | - | - |
| 1777853155 | 27.78° C | 24% | 1013.8 hPa | 0 mm | - | - | - |
| 1777851935 | 28.33° C | 24% | 1014.9 hPa | 0 mm | - | - | - |
| 1777847134 | 28.33° C | 22% | 1015.1 hPa | 0 mm | - | - | - |
| 1777839934 | 26.67° C | 25% | 1017.6 hPa | 0 mm | - | - | - |
| 1777828533 | 20° C | 41% | 1020.9 hPa | 0 mm | - | - | - |
| 1777827933 | 19.44° C | 40% | 1020.8 hPa | 0 mm | - | - | - |
* Rain latest hour (hover to see other rain measurements)
** Current wind speed in m/s (hover to see current wind gust speed)